Latest Weather Observations for Melbourne Airport

IDV60901

Issued at 10:21 pm EST Thursday 5 May 2016 (issued every 10 minutes, with the page automatically refreshed every 10 minutes)

About weather observations | Map of Melbourne area stations | Latest observations for Melbourne area | Other Formats
Station Details ID: 086282 Name: MELBOURNE AIRPORT Lat: -37.67 Lon: 144.83 Height: 113.4 m
Data from the previous 72 hours. | See also: Recent months at Melbourne Airport
Date/Time
EST
Tmp

°C
App
Tmp
°C
Dew
Point
°C
Rel
Hum
%
Delta-T

°C
Wind Press
QNH
hPa
Press
MSL
hPa
Rain
since
9 am
mm
Dir
 
Spd
km/h
Gust
km/h
Spd
kts
Gust
kts
05/10:00pm 16.4 12.2 8.4 59 4.1 NNE 20 28 11 15 1014.1 1014.1 0.0
05/09:30pm 16.3 11.8 8.7 60 3.9 NE 22 32 12 17 1014.3 1014.3 0.0
05/09:00pm 16.2 11.4 8.8 61 3.8 NE 24 30 13 16 1014.3 1014.3 0.0
05/08:30pm 16.7 10.7 8.8 59 4.1 NNE 30 37 16 20 1014.1 1014.1 0.0
05/08:00pm 16.7 10.4 8.8 59 4.1 NNE 32 41 17 22 1013.9 1013.9 0.0
05/07:30pm 16.9 10.6 8.8 59 4.2 NNE 32 43 17 23 1013.7 1013.7 0.0
05/07:00pm 17.0 11.8 8.7 58 4.3 NNE 26 33 14 18 1013.6 1013.6 0.0
05/06:30pm 17.2 12.8 8.9 58 4.3 NNE 22 33 12 18 1013.4 1013.4 0.0
05/06:00pm 17.8 12.6 9.0 56 4.6 NNE 26 33 14 18 1013.2 1013.2 0.0
05/05:30pm 18.7 11.7 8.3 50 5.4 N 35 48 19 26 1012.8 1012.8 0.0
05/05:00pm 19.1 12.7 8.6 50 5.5 N 32 48 17 26 1012.9 1012.9 0.0
05/04:44pm 19.4 13.0 8.7 50 5.6 N 32 50 17 27 1013.0 1013.0 0.0
05/04:30pm 19.8 12.8 8.3 47 6.0 N 35 46 19 25 1013.0 1013.0 0.0
05/04:11pm 20.0 13.4 8.6 47 6.0 NNW 33 52 18 28 1013.3 1013.3 0.0
05/04:00pm 20.2 12.9 8.6 47 6.1 N 37 50 20 27 1013.4 1013.4 0.0
05/03:30pm 20.4 12.2 8.4 46 6.3 N 41 52 22 28 1013.2 1013.2 0.0
05/03:17pm 20.4 12.6 8.4 46 6.3 N 39 57 21 31 1013.0 1013.0 0.0
05/03:00pm 20.0 11.1 7.8 45 6.3 N 44 57 24 31 1013.0 1013.0 0.0
05/02:30pm 20.0 11.4 8.3 47 6.1 N 43 56 23 30 1013.1 1013.1 0.0
05/02:20pm 20.0 12.2 8.3 47 6.1 NNW 39 70 21 38 1013.3 1013.3 0.0
05/02:00pm 19.7 12.4 7.4 45 6.3 NNW 35 52 19 28 1013.5 1013.5 0.0
05/01:30pm 19.8 13.4 8.6 48 5.9 N 32 43 17 23 1013.7 1013.7 0.0
05/01:00pm 17.7 9.9 8.4 54 4.8 N 39 52 21 28 1014.2 1014.2 0.0
05/12:30pm 18.6 10.8 8.4 51 5.3 N 39 52 21 28 1014.5 1014.5 0.0
05/12:00pm 17.4 9.2 8.0 54 4.8 N 41 52 22 28 1015.1 1015.1 0.0
05/11:54am 17.5 9.6 7.9 53 4.9 N 39 57 21 31 1015.2 1015.2 0.0
05/11:30am 17.9 9.1 8.2 53 5.0 N 44 57 24 31 1015.6 1015.6 0.0
05/11:00am 17.5 8.9 8.1 54 4.8 N 43 56 23 30 1016.0 1016.0 0.0
05/10:30am 18.1 11.0 8.2 52 5.1 N 35 52 19 28 1016.1 1016.1 0.0
05/10:25am 17.6 10.8 7.8 52 5.0 N 33 52 18 28 1016.1 1016.1 0.0
05/10:00am 17.2 10.1 8.0 54 4.7 N 35 50 19 27 1016.7 1016.8 0.0
05/09:30am 17.4 11.0 8.5 56 4.6 N 32 44 17 24 1016.7 1016.8 0.0
05/09:00am 16.6 10.4 7.9 56 4.4 N 30 35 16 19 1016.6 1016.7 0.0
05/08:30am 15.0 9.9 7.8 62 3.6 NNE 24 35 13 19 1016.4 1016.5 0.0
05/08:00am 13.5 7.7 7.9 69 2.8 NNE 28 35 15 19 1016.3 1016.4 0.0
05/07:30am 13.2 6.9 7.5 68 2.8 NNE 30 37 16 20 1016.3 1016.4 0.0
05/07:00am 13.3 6.6 7.4 67 2.9 NNE 32 41 17 22 1016.1 1016.1 0.0
05/06:45am 13.2 7.3 7.5 68 2.8 NNE 28 46 15 25 1016.0 1016.0 0.0
05/06:30am 13.4 6.7 7.3 66 3.0 NNE 32 48 17 26 1016.0 1016.0 0.0
05/06:22am 13.2 6.9 7.3 67 2.9 NNE 30 48 16 26 1016.0 1016.0 0.0
05/06:00am 13.1 6.3 7.1 67 2.9 N 32 39 17 21 1015.9 1015.9 0.0
05/05:30am 13.2 5.9 7.0 66 3.0 N 35 43 19 23 1015.6 1015.6 0.0
05/05:00am 13.2 6.9 7.3 67 2.9 N 30 39 16 21 1015.5 1015.5 0.0
05/04:30am 12.9 7.0 7.4 69 2.7 N 28 35 15 19 1015.6 1015.6 0.0
05/04:00am 12.6 7.1 7.5 71 2.5 N 26 32 14 17 1015.7 1015.7 0.0
05/03:30am 12.0 7.8 7.5 74 2.2 N 19 26 10 14 1015.9 1015.9 0.0
05/03:00am 12.4 7.6 7.3 71 2.5 N 22 30 12 16 1016.1 1016.1 0.0
05/02:30am 12.3 7.5 7.4 72 2.4 N 22 32 12 17 1016.4 1016.5 0.0
05/02:00am 11.6 7.7 7.3 75 2.1 N 17 20 9 11 1016.5 1016.6 0.0
05/01:30am 11.5 7.9 6.9 73 2.2 N 15 20 8 11 1016.5 1016.6 0.0
05/01:00am 11.1 7.5 6.9 75 2.0 NNE 15 22 8 12 1016.5 1016.6 0.0
05/12:30am 11.8 7.5 6.8 71 2.4 N 19 24 10 13 1016.5 1016.6 0.0
05/12:00am 12.3 7.4 6.7 68 2.7 N 22 32 12 17 1016.6 1016.7 0.0
 
Date/Time
EST
Tmp

°C
App
Tmp
°C
Dew
Point
°C
Rel
Hum
%
Delta-T

°C
Wind Press
QNH
hPa
Press
MSL
hPa
Rain
since
9 am
mm
Dir
 
Spd
km/h
Gust
km/h
Spd
kts
Gust
kts
04/11:36pm 12.8 6.7 6.5 65 3.0 N 28 46 15 25 1016.6 1016.7 0.0
04/11:30pm 12.8 6.7 6.5 65 3.0 N 28 39 15 21 1016.6 1016.7 0.0
04/11:20pm 13.3 6.8 6.4 63 3.3 N 30 48 16 26 1016.6 1016.7 0.0
04/11:00pm 13.0 6.9 6.8 66 3.0 N 28 33 15 18 1016.8 1016.9 0.0
04/10:30pm 13.1 7.8 6.7 65 3.1 N 24 30 13 16 1016.9 1017.0 0.0
04/10:00pm 12.8 8.3 6.8 67 2.9 N 20 30 11 16 1017.1 1017.2 0.0
04/09:30pm 13.6 9.0 6.6 62 3.4 N 20 26 11 14 1017.1 1017.2 0.0
04/09:00pm 13.3 9.7 6.7 64 3.2 N 15 19 8 10 1017.0 1017.1 0.0
04/08:30pm 13.2 8.7 6.1 62 3.4 N 19 26 10 14 1016.8 1016.9 0.0
04/08:00pm 13.7 9.5 5.9 59 3.7 N 17 24 9 13 1016.7 1016.8 0.0
04/07:30pm 13.8 9.1 6.1 59 3.7 N 20 30 11 16 1016.6 1016.7 0.0
04/07:00pm 14.1 8.6 5.7 57 4.0 N 24 32 13 17 1016.3 1016.4 0.0
04/06:30pm 14.3 9.1 5.4 55 4.2 N 22 32 12 17 1016.1 1016.1 0.0
04/06:00pm 14.4 8.8 5.6 55 4.2 N 24 30 13 16 1015.8 1015.8 0.0
04/05:30pm 14.7 9.8 5.2 53 4.5 N 20 28 11 15 1015.4 1015.4 0.0
04/05:00pm 15.2 9.8 4.5 49 5.0 N 22 28 12 15 1015.1 1015.1 0.0
04/04:30pm 15.4 10.3 4.3 47 5.2 NNW 20 30 11 16 1015.1 1015.1 0.0
04/04:00pm 15.6 10.4 3.7 45 5.5 NNW 20 28 11 15 1014.9 1014.9 0.0
04/03:30pm 15.7 10.1 3.3 43 5.7 NW 22 30 12 16 1014.9 1014.9 0.0
04/03:00pm 15.7 9.7 3.3 43 5.7 NNW 24 33 13 18 1014.9 1014.9 0.0
04/02:30pm 15.8 10.5 3.1 42 5.8 NW 20 32 11 17 1014.7 1014.7 0.0
04/02:00pm 16.6 10.9 2.8 39 6.3 NW 22 33 12 18 1014.7 1014.7 0.0
04/01:30pm 15.7 9.2 2.7 41 5.9 NNW 26 37 14 20 1014.9 1014.9 0.0
04/01:00pm 16.2 9.3 2.8 40 6.1 NNW 28 43 15 23 1014.9 1014.9 0.0
04/12:30pm 15.8 10.6 2.5 40 6.0 NW 19 30 10 16 1015.2 1015.2 0.0
04/12:00pm 15.5 10.2 3.0 43 5.7 NNW 20 32 11 17 1015.6 1015.6 0.0
04/11:30am 15.6 10.5 2.8 42 5.8 WNW 19 28 10 15 1015.6 1015.6 0.0
04/11:00am 15.1 9.9 2.7 43 5.6 WNW 19 26 10 14 1015.9 1015.9 0.0
04/10:30am 14.9 9.6 3.0 44 5.4 WNW 20 28 11 15 1015.7 1015.7 0.0
04/10:00am 14.2 9.8 4.8 53 4.4 NW 17 26 9 14 1015.9 1015.9 0.0
04/09:30am 13.0 9.1 5.3 59 3.6 NNW 15 26 8 14 1015.9 1015.9 0.0
04/09:00am 12.0 7.7 5.3 63 3.1 NNW 17 24 9 13 1015.7 1015.7 0.8
04/08:30am 10.6 6.4 5.6 71 2.3 N 17 22 9 12 1015.5 1015.5 -
04/08:00am 8.6 3.8 5.8 82 1.3 N 20 26 11 14 1015.1 1015.1 -
04/07:30am 7.5 2.8 5.0 84 1.1 N 19 24 10 13 1014.6 1014.6 -
04/07:00am 7.1 2.7 4.6 84 1.1 N 17 19 9 10 1014.2 1014.2 -
04/06:30am 8.1 3.3 4.5 78 1.6 NNW 19 26 10 14 1013.6 1013.6 -
04/06:00am 8.1 3.0 4.2 76 1.7 NNW 20 26 11 14 1013.3 1013.3 -
04/05:30am 7.4 2.5 4.2 80 1.4 N 19 20 10 11 1013.1 1013.1 -
04/05:00am 8.1 4.0 4.2 76 1.7 NW 15 19 8 10 1012.5 1012.5 -
04/04:30am 8.5 3.7 4.4 75 1.8 NW 19 26 10 14 1012.1 1012.1 -
04/04:00am 8.0 3.5 4.4 78 1.6 N 17 19 9 10 1011.9 1011.9 -
04/03:30am 9.3 5.5 4.1 70 2.3 NNW 13 19 7 10 1011.6 1011.6 -
04/03:00am 9.5 5.1 4.6 71 2.2 NNW 17 20 9 11 1011.0 1011.0 0.0
04/02:30am 9.3 5.0 5.1 75 1.9 N 17 20 9 11 1010.7 1010.7 -
04/02:00am 9.9 6.2 4.3 68 2.5 NNW 13 17 7 9 1010.7 1010.7 -
04/01:30am 9.8 5.8 4.7 70 2.3 NW 15 20 8 11 1010.6 1010.6 -
04/01:00am 9.7 5.7 4.8 71 2.2 WNW 15 19 8 10 1010.4 1010.4 -
04/12:30am 10.4 6.8 5.2 70 2.4 WNW 13 17 7 9 1010.2 1010.2 -
04/12:00am 12.1 7.1 4.5 59 3.5 W 20 26 11 14 1010.0 1010.0 -
 
Date/Time
EST
Tmp

°C
App
Tmp
°C
Dew
Point
°C
Rel
Hum
%
Delta-T

°C
Wind Press
QNH
hPa
Press
MSL
hPa
Rain
since
9 am
mm
Dir
 
Spd
km/h
Gust
km/h
Spd
kts
Gust
kts
03/11:30pm 11.6 7.6 5.1 64 3.0 WNW 15 22 8 12 1009.8 1009.8 -
03/11:00pm 11.5 8.2 4.7 63 3.1 NNW 11 15 6 8 1009.3 1009.3 -
03/10:30pm 11.3 8.3 4.0 61 3.3 NW 9 11 5 6 1008.9 1008.9 -
03/10:00pm 12.4 7.5 4.3 57 3.7 WNW 19 22 10 12 1008.7 1008.7 -
03/09:30pm 13.3 10.0 4.4 55 4.1 NW 11 17 6 9 1008.4 1008.4 -
03/09:00pm 13.1 8.2 5.0 58 3.8 WNW 20 30 11 16 1007.8 1007.8 0.8
03/08:30pm 13.2 8.7 6.1 62 3.4 WNW 19 26 10 14 1007.4 1007.4 -
03/08:00pm 12.8 8.9 7.1 68 2.8 W 17 24 9 13 1007.1 1007.1 -
03/07:30pm 13.4 7.1 5.9 60 3.6 W 28 41 15 22 1006.6 1006.6 -
03/07:00pm 14.1 6.5 5.7 57 4.0 W 35 48 19 26 1006.4 1006.4 -
03/06:30pm 14.1 7.2 7.2 63 3.4 WNW 33 43 18 23 1005.6 1005.6 -
03/06:00pm 13.9 7.8 8.1 68 2.9 W 30 43 16 23 1004.6 1004.6 -
03/05:47pm 13.6 7.8 9.3 75 2.2 WNW 30 50 16 27 1004.1 1004.1 -
03/05:30pm 13.5 8.3 10.3 81 1.7 W 28 39 15 21 1003.9 1003.9 -
03/05:00pm 13.3 7.5 10.8 85 1.3 W 32 44 17 24 1003.3 1003.3 -
03/04:30pm 13.6 5.4 10.4 81 1.7 WSW 44 59 24 32 1002.6 1002.6 -
03/04:20pm 15.4 9.1 9.0 65 3.3 WNW 32 54 17 29 1002.4 1002.4 0.0
03/04:00pm 17.7 12.7 11.1 65 3.6 NNW 28 41 15 22 1001.4 1001.3 0.0
03/03:30pm - - - - - - - - - - - - -
03/03:11pm 17.6 11.6 10.8 64 3.7 NNW 33 52 18 28 1000.9 1000.8 0.0
03/03:00pm 17.9 10.9 10.1 60 4.2 NNW 37 54 20 29 1000.7 1000.5 0.0
03/02:40pm 17.9 10.5 9.9 59 4.3 NNW 39 57 21 31 1000.1 1000.1 0.0
03/02:30pm 17.6 8.8 9.7 60 4.2 N 46 57 25 31 1000.1 1000.1 0.0
03/02:04pm 18.6 10.3 9.2 54 5.0 NNW 43 70 23 38 999.8 999.8 0.0
03/02:00pm 19.0 11.4 9.0 52 5.3 NNW 39 54 21 29 999.8 999.8 0.0
03/01:46pm 18.3 10.2 8.5 52 5.1 NNW 41 61 22 33 1000.0 1000.0 0.0
03/01:30pm 18.4 9.2 8.0 50 5.4 N 46 61 25 33 1000.0 1000.0 0.0
03/01:00pm 17.9 8.5 7.3 50 5.4 NNW 46 61 25 33 1000.2 1000.2 0.0
03/12:30pm 18.1 7.6 7.3 49 5.5 N 52 74 28 40 999.9 999.9 0.0
03/12:00pm 18.8 8.6 7.0 46 6.0 N 50 70 27 38 1000.8 1000.7 0.0
03/11:30am 18.6 9.4 6.2 44 6.2 NNW 44 67 24 36 1001.4 1001.3 0.0
03/11:00am 18.3 9.6 6.0 44 6.1 N 41 59 22 32 1001.9 1001.8 0.0
03/10:31am 17.0 7.8 5.5 46 5.6 N 43 61 23 33 1002.3 1002.3 0.0
03/10:30am 17.0 7.6 5.5 46 5.6 N 44 61 24 33 1002.4 1002.4 0.0
03/10:00am 17.6 8.4 5.3 44 6.0 NNW 43 69 23 37 1002.4 1002.4 0.0
03/09:36am 16.8 7.0 5.2 46 5.6 N 46 70 25 38 1002.6 1002.6 0.0
03/09:30am 16.8 6.7 5.8 48 5.4 N 48 63 26 34 1002.5 1002.5 0.0
03/09:15am 16.3 7.1 5.6 49 5.2 N 43 61 23 33 1002.4 1002.4 0.0
03/09:00am 15.7 6.0 5.8 51 4.8 N 46 59 25 32 1002.5 1002.5 0.0
03/08:32am 15.1 6.4 5.8 53 4.5 N 41 61 22 33 1002.6 1002.6 0.0
03/08:30am 15.1 6.7 5.8 53 4.5 N 39 54 21 29 1002.8 1002.8 0.0
03/08:00am 14.5 7.6 6.3 58 4.0 N 32 41 17 22 1003.8 1003.8 0.0
03/07:33am 13.1 6.1 6.0 62 3.4 N 32 50 17 27 1003.5 1003.5 0.0
03/07:30am 13.0 6.0 6.1 63 3.3 N 32 43 17 23 1003.6 1003.6 0.0
03/07:00am 13.0 6.7 5.6 61 3.5 N 28 37 15 20 1003.6 1003.6 0.0
03/06:30am 12.9 4.9 5.5 60 3.5 N 37 48 20 26 1003.5 1003.5 0.0
03/06:00am 13.0 5.7 5.4 60 3.6 N 33 43 18 23 1003.9 1003.9 0.0
03/05:30am 12.9 5.2 5.5 60 3.5 N 35 50 19 27 1003.8 1003.8 0.0
03/05:00am 13.4 5.0 5.4 58 3.8 N 39 52 21 28 1003.7 1003.7 0.0
03/04:30am 14.8 5.6 5.4 53 4.5 N 43 56 23 30 1003.7 1003.7 0.0
03/04:00am 14.2 5.8 5.6 56 4.1 N 39 56 21 30 1004.4 1004.4 0.0
03/03:30am 13.2 5.8 6.6 64 3.2 N 35 44 19 24 1004.9 1004.9 0.0
03/03:00am 13.6 6.1 6.4 62 3.5 N 35 46 19 25 1005.4 1005.4 0.0
03/02:30am 14.4 6.3 5.1 53 4.4 N 37 50 20 27 1005.5 1005.5 0.0
03/02:00am 13.6 5.8 4.8 55 4.1 N 35 46 19 25 1005.8 1005.8 0.0
03/01:30am 13.5 6.2 4.7 55 4.1 NNE 32 39 17 21 1006.2 1006.2 0.0
03/01:00am 13.9 7.0 4.7 54 4.3 N 30 39 16 21 1006.9 1006.9 0.0
03/12:30am 13.4 6.1 4.6 55 4.1 N 32 39 17 21 1007.3 1007.3 0.0
03/12:00am 13.9 6.6 4.4 52 4.4 N 32 39 17 21 1007.5 1007.5 0.0
 
Date/Time
EST
Tmp

°C
App
Tmp
°C
Dew
Point
°C
Rel
Hum
%
Delta-T

°C
Wind Press
QNH
hPa
Press
MSL
hPa
Rain
since
9 am
mm
Dir
 
Spd
km/h
Gust
km/h
Spd
kts
Gust
kts
02/11:30pm 13.5 4.8 4.2 53 4.3 N 39 59 21 32 1007.6 1007.6 0.0
02/11:20pm 13.5 4.8 4.2 53 4.3 N 39 59 21 32 1007.5 1007.5 0.0
02/11:00pm 13.3 5.4 4.4 55 4.1 N 35 46 19 25 1007.6 1007.6 0.0
02/10:30pm 13.7 6.3 4.2 52 4.4 N 32 44 17 24 1008.0 1008.0 0.0

Latest Capital City Observations: Canberra | Sydney | Melbourne | Brisbane | Adelaide | Perth | Hobart | Darwin

Other Formats:

Comma delimited format used in spreadsheet applications
http://www.bom.gov.au/fwo/IDV60901/IDV60901.94866.axf

JavaScript Object Notation format (JSON) in row-major order
http://www.bom.gov.au/fwo/IDV60901/IDV60901.94866.json